Southwest Georgia Regional Airport
KABY : now visible

Airfield :











YOU CAN JOIN US ON...

 
LOGIN :

Register | Disclaimer

   EN    FR    IT 

 









Legend :    VFR   Marginal VFR   IFR   Intensive IFR   Very Intensive IFR
Visi :
Ceiling :
>= 8 km
>= 3000ft
5 to 8 km
1000 to 3000 ft
1500m to 5 km
500 to 1000 ft
800 to 1500m
200 to 500 ft
< 800m
< 200 ft
Symbols :   Thunderstorms  Fog  Heavy snow  Heavy precipitations  Wind > 20 kt






- Airport Elevation : 197 ft
- IATA code : ABY


KABY - Southwest Georgia Regional

CURRENT METAR :
  • 031353Z 00000KT 10SM CLR 29/24 A2998 RMK AO2 SLP148 T02890239

EXPIRED METARs :
  • 031253Z 11003KT 10SM CLR 27/24 A2997 RMK AO2 SLP147 T02720239
  • 031153Z 00000KT 10SM CLR 25/24 A2997 RMK AO2 SLP145 70006 T02500239 10267 20239 53006

TAF KABY
Valid from the 03 at 12:00 until the 04 at 12:00 UTC


031120Z 0312/0412 VRB04KT P6SM SKC
FM031500 02005KT P6SM FEW180
FM031700 36010KT P6SM SCT050
PROB30 0321/0324 5SM TSRA SCT050CB
KZJX FIR / North America



MET'MAP, your aeronautical weather chart ! - Copyright ORBIFLY December 2007 - Disclaimer

ORBIFLY MET'MAP TEAM :

Programming & Development : Alexandra Zaïnal
Concept & original design : Baudouin d'Aumeries
Assistance for programming : Marc-Olivier Méhu
Technical & hardware support : Manuel Goepfert

Contact : metmap@orbifly.com




SOURCES & CREDITS :

   NOAA       Earth
Advisory